Pays
Station

 

Conditions  météo  pour  Scatsa/Shetland Island  -  Royaume-Uni    Royaume-Uni

  
11 °C
    
 
 

METAR pour Scatsa/Shetland Island :

EGPM 232220Z AUTO 14026G40KT 9999 NCD 11/04 Q1009

 

Voici le bulletin pour Scatsa/Shetland Island - Royaume-Uni.
 
Le bulletin a été fait il y a 30 minutes, à 22:20 UTC .
Le vent soufflait à la vitesse de 13.4 mètres par seconde avec des rafales jusqu'à 20.6 mètres par seconde de Sud-est (140°).
 
La température était de 11 °C, avec un point de rosée à 4 °C.
La pression atmosphérique était de 1009 hPa.
L'humidité relative était de 62.0%.
 
La visibilité globale était de supérieure à 10 kilomètres.
 

 
 
 

Pays :   A   B   C   D   E   F   G   H   I   J   K   L   M   N   O   P   Q   R   S   T   U   V   W   Y   Z

 

Partenaires :  Info Météo avec Met'info
Météo Marine avec MeteoMarine.net
Infos Site  |  Infos Légales  |  Crédits  |  Confidentialité
Contactez-nous  |  Ajouter aux favoris
© 2013-2019 METAR - Tous droits réservés